AAL756 KLAX-KOAK
Flight info
| Callsign | AAL756 |
|---|---|
| Flight time | N/A |
| Altitude | 38000 |
| Route | LADYJ4 COREZ RGOOD EMZOH3 |
| Aircraft | A20N/M-SDE2E3FGHIRWXY/LB1 |
Departure
| Time | 2026-05-04 21:13 |
|---|---|
| Airport | Los Angeles International Airport (KLAX) |
Arrival
| Time | N/A |
|---|---|
| Airport | San Francisco Bay Oakland International Airport (KOAK) |
| Time | Latitude | Longitude | Altitude | Speed | Heading |
|---|---|---|---|---|---|
| 2026-05-04 20:31 | 33.94002 | -118.40603 | 121 ft | 0 kts | 294° |
| 2026-05-04 20:50 | 33.94000 | -118.40599 | 121 ft | 1 kts | 292° |
| 2026-05-04 20:50 | 33.93997 | -118.40590 | 120 ft | 1 kts | 287° |
| 2026-05-04 20:51 | 33.93995 | -118.40581 | 121 ft | 1 kts | 281° |
| 2026-05-04 20:51 | 33.93994 | -118.40572 | 121 ft | 1 kts | 276° |
| 2026-05-04 20:51 | 33.93993 | -118.40563 | 122 ft | 1 kts | 270° |
| 2026-05-04 20:51 | 33.93993 | -118.40554 | 123 ft | 1 kts | 265° |
| 2026-05-04 20:52 | 33.93994 | -118.40545 | 123 ft | 1 kts | 258° |
| 2026-05-04 20:52 | 33.93995 | -118.40536 | 124 ft | 1 kts | 243° |
| 2026-05-04 20:52 | 33.93996 | -118.40533 | 124 ft | 0 kts | 239° |
| 2026-05-04 20:56 | 33.93993 | -118.40539 | 124 ft | 2 kts | 236° |
| 2026-05-04 20:57 | 33.93975 | -118.40543 | 121 ft | 3 kts | 183° |
| 2026-05-04 20:57 | 33.93974 | -118.40543 | 121 ft | 0 kts | 182° |
| 2026-05-04 21:02 | 33.93969 | -118.40544 | 122 ft | 3 kts | 182° |
| 2026-05-04 21:02 | 33.93937 | -118.40531 | 124 ft | 7 kts | 150° |
| 2026-05-04 21:03 | 33.93914 | -118.40472 | 124 ft | 10 kts | 92° |
| 2026-05-04 21:03 | 33.93920 | -118.40375 | 125 ft | 14 kts | 79° |
| 2026-05-04 21:03 | 33.93939 | -118.40249 | 122 ft | 17 kts | 81° |
| 2026-05-04 21:03 | 33.93951 | -118.40097 | 125 ft | 10 kts | 84° |
| 2026-05-04 21:04 | 33.93952 | -118.40088 | 124 ft | 2 kts | 84° |
| 2026-05-04 21:04 | 33.93955 | -118.40049 | 124 ft | 6 kts | 83° |
| 2026-05-04 21:04 | 33.93956 | -118.40046 | 125 ft | 2 kts | 83° |
| 2026-05-04 21:04 | 33.93959 | -118.40012 | 124 ft | 6 kts | 83° |
| 2026-05-04 21:05 | 33.93965 | -118.39949 | 125 ft | 0 kts | 84° |
| 2026-05-04 21:05 | 33.93966 | -118.39941 | 125 ft | 3 kts | 84° |
| 2026-05-04 21:05 | 33.93970 | -118.39894 | 124 ft | 8 kts | 84° |
| 2026-05-04 21:06 | 33.93959 | -118.39818 | 123 ft | 11 kts | 138° |
| 2026-05-04 21:06 | 33.93906 | -118.39739 | 123 ft | 13 kts | 98° |
| 2026-05-04 21:06 | 33.93915 | -118.39620 | 125 ft | 16 kts | 84° |
| 2026-05-04 21:06 | 33.93930 | -118.39471 | 125 ft | 20 kts | 83° |
| 2026-05-04 21:07 | 33.93948 | -118.39296 | 124 ft | 23 kts | 83° |
| 2026-05-04 21:07 | 33.93969 | -118.39097 | 121 ft | 25 kts | 83° |
| 2026-05-04 21:07 | 33.93991 | -118.38886 | 125 ft | 23 kts | 82° |
| 2026-05-04 21:07 | 33.94011 | -118.38705 | 123 ft | 23 kts | 82° |
| 2026-05-04 21:08 | 33.94033 | -118.38502 | 124 ft | 26 kts | 83° |
| 2026-05-04 21:08 | 33.94047 | -118.38370 | 125 ft | 0 kts | 83° |
| 2026-05-04 21:11 | 33.94045 | -118.38367 | 125 ft | 1 kts | 100° |
| 2026-05-04 21:11 | 33.94036 | -118.38340 | 122 ft | 6 kts | 120° |
| 2026-05-04 21:11 | 33.93992 | -118.38321 | 123 ft | 9 kts | 186° |
| 2026-05-04 21:11 | 33.93949 | -118.38371 | 123 ft | 10 kts | 258° |
| 2026-05-04 21:12 | 33.93947 | -118.38385 | 125 ft | 0 kts | 260° |
| 2026-05-04 21:12 | 33.93916 | -118.38678 | 125 ft | 83 kts | 262° |
| 2026-05-04 21:13 | 33.93812 | -118.39697 | 169 ft | 154 kts | 263° |
| 2026-05-04 21:13 | 33.93669 | -118.41083 | 673 ft | 178 kts | 262° |
| 2026-05-04 21:13 | 33.93482 | -118.42646 | 1316 ft | 200 kts | 262° |
| 2026-05-04 21:13 | 33.93254 | -118.44392 | 2033 ft | 224 kts | 261° |
| 2026-05-04 21:14 | 33.92990 | -118.46350 | 2687 ft | 250 kts | 260° |
| 2026-05-04 21:14 | 33.92705 | -118.48514 | 3355 ft | 272 kts | 262° |
| 2026-05-04 21:14 | 33.92505 | -118.50823 | 3967 ft | 298 kts | 266° |
| 2026-05-04 21:14 | 33.92379 | -118.53489 | 4098 ft | 340 kts | 267° |
| 2026-05-04 21:15 | 33.92227 | -118.56479 | 4313 ft | 370 kts | 266° |
| 2026-05-04 21:15 | 33.92037 | -118.59571 | 5374 ft | 374 kts | 268° |
| 2026-05-04 21:15 | 33.92302 | -118.62763 | 5725 ft | 398 kts | 283° |
| 2026-05-04 21:15 | 33.93120 | -118.65953 | 6789 ft | 392 kts | 288° |
| 2026-05-04 21:16 | 33.93958 | -118.69057 | 8046 ft | 390 kts | 288° |
| 2026-05-04 21:16 | 33.94800 | -118.72173 | 9063 ft | 393 kts | 288° |
| 2026-05-04 21:16 | 33.95650 | -118.75278 | 9960 ft | 399 kts | 290° |
| 2026-05-04 21:16 | 33.96920 | -118.78329 | 10272 ft | 420 kts | 304° |
| 2026-05-04 21:17 | 33.98727 | -118.81119 | 11217 ft | 417 kts | 309° |
| 2026-05-04 21:17 | 34.00557 | -118.83812 | 12366 ft | 414 kts | 309° |
| 2026-05-04 21:17 | 34.02395 | -118.86498 | 13146 ft | 417 kts | 309° |
| 2026-05-04 21:17 | 34.04415 | -118.89045 | 13667 ft | 428 kts | 320° |
| 2026-05-04 21:18 | 34.06946 | -118.91080 | 13690 ft | 448 kts | 333° |
| 2026-05-04 21:18 | 34.09720 | -118.92708 | 14794 ft | 437 kts | 334° |
| 2026-05-04 21:18 | 34.12429 | -118.94273 | 15604 ft | 439 kts | 334° |
| 2026-05-04 21:18 | 34.15193 | -118.95842 | 16361 ft | 439 kts | 335° |
| 2026-05-04 21:19 | 34.18008 | -118.97302 | 17052 ft | 442 kts | 338° |
| 2026-05-04 21:19 | 34.20916 | -118.98511 | 17751 ft | 443 kts | 345° |
| 2026-05-04 21:19 | 34.23964 | -118.99088 | 18459 ft | 445 kts | 357° |
| 2026-05-04 21:19 | 34.27051 | -118.98835 | 19155 ft | 446 kts | 10° |
| 2026-05-04 21:20 | 34.30025 | -118.97764 | 19856 ft | 447 kts | 23° |
| 2026-05-04 21:20 | 34.32739 | -118.95925 | 20559 ft | 448 kts | 36° |
| 2026-05-04 21:20 | 34.35060 | -118.93414 | 21259 ft | 449 kts | 47° |
| 2026-05-04 21:20 | 34.37028 | -118.90549 | 21950 ft | 449 kts | 52° |
| 2026-05-04 21:21 | 34.38931 | -118.87546 | 22650 ft | 449 kts | 53° |
| 2026-05-04 21:21 | 34.40808 | -118.84526 | 23350 ft | 449 kts | 53° |
| 2026-05-04 21:21 | 34.42680 | -118.81502 | 24049 ft | 448 kts | 53° |
| 2026-05-04 21:21 | 34.44548 | -118.78480 | 24750 ft | 448 kts | 53° |
| 2026-05-04 21:22 | 34.46443 | -118.75493 | 25448 ft | 446 kts | 51° |
| 2026-05-04 21:22 | 34.48391 | -118.72571 | 26147 ft | 445 kts | 51° |
| 2026-05-04 21:22 | 34.50407 | -118.69747 | 26840 ft | 442 kts | 44° |
| 2026-05-04 21:22 | 34.52818 | -118.67460 | 27540 ft | 439 kts | 31° |
| 2026-05-04 21:23 | 34.55527 | -118.65918 | 28230 ft | 435 kts | 18° |
| 2026-05-04 21:23 | 34.58466 | -118.65162 | 28928 ft | 430 kts | 4° |
| 2026-05-04 21:23 | 34.61431 | -118.65266 | 29625 ft | 425 kts | 350° |
| 2026-05-04 21:23 | 34.64256 | -118.66228 | 30321 ft | 420 kts | 336° |
| 2026-05-04 21:24 | 34.66758 | -118.67991 | 31018 ft | 414 kts | 321° |
| 2026-05-04 21:24 | 34.68771 | -118.70438 | 31713 ft | 408 kts | 306° |
| 2026-05-04 21:24 | 34.70155 | -118.73401 | 32409 ft | 400 kts | 291° |
| 2026-05-04 21:24 | 34.71028 | -118.76578 | 33102 ft | 393 kts | 286° |
| 2026-05-04 21:25 | 34.71752 | -118.79744 | 33793 ft | 385 kts | 285° |
| 2026-05-04 21:25 | 34.72422 | -118.82811 | 34475 ft | 376 kts | 284° |
| 2026-05-04 21:25 | 34.73194 | -118.85796 | 35145 ft | 365 kts | 294° |
| 2026-05-04 21:25 | 34.74434 | -118.88433 | 35698 ft | 358 kts | 308° |
| 2026-05-04 21:26 | 34.76139 | -118.90650 | 35845 ft | 362 kts | 319° |
| 2026-05-04 21:26 | 34.78153 | -118.92507 | 36006 ft | 363 kts | 326° |
| 2026-05-04 21:26 | 34.82434 | -118.95676 | 35728 ft | 360 kts | 330° |
| 2026-05-04 21:27 | 34.84610 | -118.97170 | 35548 ft | 359 kts | 331° |
| 2026-05-04 21:27 | 34.86805 | -118.98618 | 35371 ft | 359 kts | 332° |
| 2026-05-04 21:27 | 34.88985 | -119.00005 | 35252 ft | 358 kts | 332° |
| 2026-05-04 21:27 | 34.91185 | -119.01400 | 35316 ft | 355 kts | 332° |
| 2026-05-04 21:28 | 34.93360 | -119.02794 | 35427 ft | 350 kts | 331° |
| 2026-05-04 21:28 | 34.95484 | -119.04196 | 35562 ft | 345 kts | 331° |
| 2026-05-04 21:28 | 34.97573 | -119.05596 | 35679 ft | 340 kts | 330° |
| 2026-05-04 21:28 | 34.99663 | -119.07007 | 35736 ft | 347 kts | 330° |
| 2026-05-04 21:29 | 35.03926 | -119.09891 | 35888 ft | 358 kts | 330° |
| 2026-05-04 21:29 | 35.08225 | -119.13181 | 35953 ft | 373 kts | 322° |
| 2026-05-04 21:30 | 35.12534 | -119.16973 | 35964 ft | 391 kts | 326° |
| 2026-05-04 21:30 | 35.17250 | -119.20566 | 35975 ft | 408 kts | 329° |
| 2026-05-04 21:31 | 35.22246 | -119.24172 | 35984 ft | 425 kts | 329° |
| 2026-05-04 21:31 | 35.24823 | -119.26024 | 35991 ft | 434 kts | 329° |
| 2026-05-04 21:32 | 35.30122 | -119.29845 | 35995 ft | 450 kts | 329° |
| 2026-05-04 21:32 | 35.35561 | -119.33780 | 36001 ft | 464 kts | 329° |
| 2026-05-04 21:33 | 35.41174 | -119.37847 | 36110 ft | 471 kts | 329° |
| 2026-05-04 21:33 | 35.43994 | -119.39894 | 36272 ft | 471 kts | 329° |
| 2026-05-04 21:33 | 35.46814 | -119.41941 | 36434 ft | 471 kts | 329° |
| 2026-05-04 21:33 | 35.49631 | -119.43988 | 36595 ft | 471 kts | 329° |
| 2026-05-04 21:34 | 35.52451 | -119.46039 | 36751 ft | 471 kts | 329° |
| 2026-05-04 21:34 | 35.55243 | -119.48151 | 36900 ft | 471 kts | 325° |
| 2026-05-04 21:34 | 35.57808 | -119.50554 | 37049 ft | 471 kts | 319° |
| 2026-05-04 21:34 | 35.60318 | -119.53140 | 37184 ft | 471 kts | 320° |
| 2026-05-04 21:35 | 35.62838 | -119.55709 | 37329 ft | 471 kts | 320° |
| 2026-05-04 21:35 | 35.65360 | -119.58276 | 37471 ft | 471 kts | 320° |
| 2026-05-04 21:35 | 35.67880 | -119.60845 | 37605 ft | 471 kts | 320° |
| 2026-05-04 21:35 | 35.70396 | -119.63415 | 37743 ft | 471 kts | 320° |
| 2026-05-04 21:36 | 35.72912 | -119.65989 | 37863 ft | 471 kts | 320° |
| 2026-05-04 21:36 | 35.75433 | -119.68571 | 37994 ft | 471 kts | 320° |
| 2026-05-04 21:36 | 35.77946 | -119.71147 | 38110 ft | 471 kts | 320° |
| 2026-05-04 21:37 | 35.82969 | -119.76306 | 38186 ft | 473 kts | 320° |
| 2026-05-04 21:37 | 35.85489 | -119.78896 | 38387 ft | 471 kts | 320° |
| 2026-05-04 21:37 | 35.88008 | -119.81488 | 38386 ft | 474 kts | 320° |
| 2026-05-04 21:38 | 35.92953 | -119.86899 | 38331 ft | 478 kts | 316° |
| 2026-05-04 21:38 | 35.97764 | -119.92601 | 38272 ft | 480 kts | 316° |
| 2026-05-04 21:39 | 36.02567 | -119.98283 | 38174 ft | 482 kts | 316° |
| 2026-05-04 21:39 | 36.07358 | -120.03947 | 37891 ft | 475 kts | 316° |
| 2026-05-04 21:39 | 36.09759 | -120.06787 | 37333 ft | 478 kts | 316° |
| 2026-05-04 21:40 | 36.12133 | -120.09589 | 37002 ft | 467 kts | 316° |
| 2026-05-04 21:40 | 36.14490 | -120.12347 | 36132 ft | 465 kts | 316° |
| 2026-05-04 21:40 | 36.16827 | -120.15107 | 35318 ft | 463 kts | 315° |
| 2026-05-04 21:40 | 36.19117 | -120.17882 | 34749 ft | 457 kts | 315° |
| 2026-05-04 21:41 | 36.21359 | -120.20608 | 34435 ft | 446 kts | 315° |
| 2026-05-04 21:41 | 36.23519 | -120.23222 | 34185 ft | 434 kts | 315° |
| 2026-05-04 21:41 | 36.25655 | -120.25794 | 33908 ft | 423 kts | 315° |
| 2026-05-04 21:41 | 36.27765 | -120.28327 | 33176 ft | 424 kts | 315° |
| 2026-05-04 21:42 | 36.29906 | -120.30895 | 32139 ft | 433 kts | 316° |
| 2026-05-04 21:42 | 36.32091 | -120.33517 | 31038 ft | 442 kts | 316° |
| 2026-05-04 21:42 | 36.34301 | -120.36168 | 30301 ft | 441 kts | 315° |
| 2026-05-04 21:42 | 36.36490 | -120.38798 | 29721 ft | 435 kts | 315° |
| 2026-05-04 21:43 | 36.38653 | -120.41398 | 29115 ft | 431 kts | 315° |
| 2026-05-04 21:43 | 36.40793 | -120.43973 | 28500 ft | 427 kts | 315° |
| 2026-05-04 21:43 | 36.42861 | -120.46463 | 28338 ft | 412 kts | 315° |
| 2026-05-04 21:43 | 36.44877 | -120.48892 | 28229 ft | 396 kts | 315° |
| 2026-05-04 21:44 | 36.46816 | -120.51233 | 28119 ft | 381 kts | 315° |
| 2026-05-04 21:44 | 36.48681 | -120.53486 | 28012 ft | 367 kts | 315° |
| 2026-05-04 21:44 | 36.50469 | -120.55645 | 27999 ft | 351 kts | 315° |
| 2026-05-04 21:44 | 36.52179 | -120.57710 | 28001 ft | 334 kts | 315° |
| 2026-05-04 21:45 | 36.53806 | -120.59675 | 27996 ft | 318 kts | 315° |
| 2026-05-04 21:45 | 36.55386 | -120.61495 | 27992 ft | 302 kts | 318° |
| 2026-05-04 21:45 | 36.56892 | -120.63141 | 27996 ft | 285 kts | 319° |
| 2026-05-04 21:45 | 36.58354 | -120.64722 | 27968 ft | 269 kts | 319° |
| 2026-05-04 21:46 | 36.59751 | -120.66265 | 27527 ft | 272 kts | 316° |
| 2026-05-04 21:46 | 36.61133 | -120.67939 | 27038 ft | 281 kts | 314° |
| 2026-05-04 21:46 | 36.62540 | -120.69707 | 26432 ft | 295 kts | 314° |
| 2026-05-04 21:46 | 36.64034 | -120.71584 | 25629 ft | 315 kts | 314° |
| 2026-05-04 21:47 | 36.65668 | -120.73530 | 24900 ft | 332 kts | 320° |
| 2026-05-04 21:47 | 36.67458 | -120.75294 | 24985 ft | 319 kts | 322° |
| 2026-05-04 21:47 | 36.69135 | -120.76910 | 25340 ft | 298 kts | 321° |
| 2026-05-04 21:47 | 36.70685 | -120.78473 | 25706 ft | 275 kts | 320° |
| 2026-05-04 21:48 | 36.72091 | -120.79955 | 25882 ft | 259 kts | 319° |
| 2026-05-04 21:48 | 36.73454 | -120.81434 | 25581 ft | 262 kts | 318° |
| 2026-05-04 21:48 | 36.74855 | -120.82944 | 25196 ft | 268 kts | 319° |
| 2026-05-04 21:48 | 36.76284 | -120.84451 | 24946 ft | 269 kts | 320° |
| 2026-05-04 21:49 | 36.77765 | -120.85989 | 23935 ft | 297 kts | 320° |
| 2026-05-04 21:49 | 36.79457 | -120.87737 | 22796 ft | 331 kts | 319° |
| 2026-05-04 21:49 | 36.81207 | -120.89711 | 21779 ft | 356 kts | 316° |
| 2026-05-04 21:49 | 36.83056 | -120.91900 | 20750 ft | 377 kts | 316° |
| 2026-05-04 21:50 | 36.85008 | -120.94173 | 20110 ft | 384 kts | 317° |
| 2026-05-04 21:50 | 36.86959 | -120.96395 | 20005 ft | 376 kts | 317° |
| 2026-05-04 21:50 | 36.88887 | -120.98561 | 19888 ft | 369 kts | 318° |
| 2026-05-04 21:50 | 36.90782 | -121.00673 | 19758 ft | 362 kts | 318° |
| 2026-05-04 21:51 | 36.92647 | -121.02748 | 19642 ft | 356 kts | 318° |
| 2026-05-04 21:51 | 36.94482 | -121.04789 | 19527 ft | 350 kts | 318° |
| 2026-05-04 21:51 | 36.96264 | -121.06772 | 19410 ft | 345 kts | 318° |
| 2026-05-04 21:51 | 36.98043 | -121.08754 | 19294 ft | 340 kts | 318° |
| 2026-05-04 21:52 | 36.99796 | -121.10708 | 19182 ft | 335 kts | 318° |
| 2026-05-04 21:52 | 37.01527 | -121.12639 | 19062 ft | 331 kts | 318° |
| 2026-05-04 21:52 | 37.03231 | -121.14542 | 19002 ft | 325 kts | 318° |
| 2026-05-04 21:52 | 37.04898 | -121.16404 | 18998 ft | 318 kts | 318° |
| 2026-05-04 21:53 | 37.06531 | -121.18230 | 19000 ft | 311 kts | 318° |
| 2026-05-04 21:53 | 37.08125 | -121.20013 | 18998 ft | 304 kts | 318° |
| 2026-05-04 21:53 | 37.09683 | -121.21756 | 19000 ft | 297 kts | 318° |
| 2026-05-04 21:53 | 37.11207 | -121.23463 | 19001 ft | 291 kts | 318° |
| 2026-05-04 21:54 | 37.12678 | -121.25111 | 19000 ft | 284 kts | 318° |
| 2026-05-04 21:54 | 37.14130 | -121.26747 | 18998 ft | 278 kts | 317° |
| 2026-05-04 21:54 | 37.15534 | -121.28372 | 18999 ft | 271 kts | 316° |
| 2026-05-04 21:54 | 37.16899 | -121.29967 | 18999 ft | 265 kts | 316° |
| 2026-05-04 21:55 | 37.18229 | -121.31522 | 18998 ft | 258 kts | 316° |
| 2026-05-04 21:55 | 37.19527 | -121.33038 | 18999 ft | 251 kts | 316° |
| 2026-05-04 21:55 | 37.20790 | -121.34508 | 19000 ft | 244 kts | 316° |
| 2026-05-04 21:55 | 37.22013 | -121.35931 | 18997 ft | 236 kts | 316° |